Portada
METAR-TAF:

METAR-TAF

Aeropuertos :

Aeropuerto Internacional de Nuakchot

Nuakchot, Mauritania

latitud: 18-18-36N, longitud: 015-58-11W, altitud: 3 m

Observación

El informe se hizo hace 19 minutos, a las 16:30 UTC
Viento 13 kt del norte-noroeste
Temperatura 29°C
Humedad 62%
Presión 1011 hPa
Visibilidad: 8000 m

METAR: GQNO 171630Z 34013KT 8000 NSC 29/21 Q1011 NOSIG

Hora: 16:49 (16:49 UTC)

Pronóstico

El informe se hizo hace 5 horas y 49 minutos, a las 11:00 UTC
Pronóstico válido del 17 a las 12 UTC al 18 a las 18 UTC
Viento 12 kt del norte-noroeste
Visibilidad: 7000 m

TAF: GQNO 171100Z 1712/1818 34012KT 7000 NSC

Observaciones y pronósticos meteorológicos de más de 4000 aeropuertos (mensajes METAR y TAF).

Los puntos amarillos y rojos representan las estaciones disponibles.

Ponga el ratón en el punto deseado para ver el nombre de la estación.

Haga clic para ver las observaciones y los pronósticos meteorológicos.

Para cambiar el mapa : haga clic en los botones verdes con una cruz de color negro para hacer un zoom, en el botón verde con un guión para alejar o en las flechas verdes para mapas adyacentes.


METAR-TAF: